Time;durP1;ratioP1;P1;durP2;ratioP2;P2;SDS_P1;SDS_P2;PMS_P1;PMS_P2;Temp;Humidity;BMP_temperature;BMP_pressure;BME280_temperature;BME280_humidity;BME280_pressure;Samples;Min_cycle;Max_cycle;Signal;HPM_P1;HPM_P2
2021/08/09 00:00:11;;;;;;;4.35;1.90;;;14.90;4.60;;;;;;5091835;27;20104;-76
2021/08/09 00:03:01;;;;;;;2.40;1.60;;;14.90;4.90;;;;;;5116073;27;20065;-75
2021/08/09 00:05:50;;;;;;;3.97;2.30;;;14.80;4.50;;;;;;5117179;27;20490;-75
2021/08/09 00:08:38;;;;;;;3.92;1.70;;;14.80;4.40;;;;;;5105807;27;20042;-75
2021/08/09 00:11:26;;;;;;;2.40;1.75;;;14.90;4.40;;;;;;5104936;27;20036;-75
2021/08/09 00:14:15;;;;;;;2.78;1.83;;;14.90;4.90;;;;;;5109786;27;20422;-75
2021/08/09 00:17:03;;;;;;;1.85;1.35;;;14.70;5.60;;;;;;5109375;27;20050;-75
2021/08/09 00:19:53;;;;;;;3.88;1.95;;;14.80;5.50;;;;;;5093869;27;20043;-75
2021/08/09 00:22:41;;;;;;;3.65;1.85;;;14.80;5.90;;;;;;5103590;27;20051;-76
2021/08/09 00:25:30;;;;;;;6.45;2.03;;;14.70;5.70;;;;;;5113262;27;20414;-76
2021/08/09 00:28:18;;;;;;;3.47;1.77;;;14.80;5.70;;;;;;5105775;27;20419;-76
2021/08/09 00:31:07;;;;;;;6.57;2.10;;;14.80;5.80;;;;;;5095703;27;20043;-76
2021/08/09 00:33:57;;;;;;;5.05;2.22;;;14.80;5.50;;;;;;5093023;27;20498;-76
2021/08/09 00:36:47;;;;;;;4.97;2.05;;;14.80;5.40;;;;;;5106907;27;20048;-75
2021/08/09 00:39:36;;;;;;;5.25;2.15;;;14.80;5.40;;;;;;5094942;28;20057;-75
2021/08/09 00:42:26;;;;;;;4.78;2.13;;;14.80;5.50;;;;;;5099510;27;20075;-75
2021/08/09 00:45:25;;;;;;;3.83;1.73;;;14.80;6.30;;;;;;5107850;27;20414;-76
2021/08/09 00:48:15;;;;;;;4.28;2.15;;;14.70;5.40;;;;;;5088247;27;20051;-75
2021/08/09 00:51:05;;;;;;;3.78;2.28;;;14.60;6.50;;;;;;5107489;27;20043;-76
2021/08/09 00:53:56;;;;;;;5.10;2.17;;;14.70;6.00;;;;;;5095523;27;20117;-76
2021/08/09 00:56:45;;;;;;;3.67;1.92;;;14.70;5.60;;;;;;5083081;27;20660;-75
2021/08/09 00:59:34;;;;;;;3.25;2.03;;;14.70;5.80;;;;;;5109103;27;20486;-76
2021/08/09 01:02:23;;;;;;;3.53;2.08;;;14.60;6.20;;;;;;5105962;27;20043;-76
2021/08/09 01:05:13;;;;;;;3.33;2.10;;;14.60;5.70;;;;;;5088881;28;20058;-75
2021/08/09 01:08:16;;;;;;;3.22;2.25;;;14.60;5.90;;;;;;5094480;27;20452;-76
2021/08/09 01:11:17;;;;;;;5.15;2.50;;;14.60;6.50;;;;;;5090176;27;20043;-75
2021/08/09 01:14:21;;;;;;;6.85;2.47;;;14.50;7.20;;;;;;5097541;27;20058;-75
2021/08/09 01:17:24;;;;;;;4.10;2.50;;;14.40;7.00;;;;;;5095507;27;20177;-75
2021/08/09 01:20:22;;;;;;;3.70;2.20;;;14.40;7.00;;;;;;5085001;27;20398;-76
2021/08/09 01:23:28;;;;;;;5.82;2.40;;;14.30;7.90;;;;;;5115570;27;20039;-76
2021/08/09 01:26:27;;;;;;;4.18;2.45;;;14.30;8.70;;;;;;5094645;27;20055;-76
2021/08/09 01:29:23;;;;;;;4.25;2.38;;;14.30;8.70;;;;;;5085583;28;20054;-76
2021/08/09 01:32:13;;;;;;;5.38;2.72;;;14.30;8.50;;;;;;5085456;28;20039;-76
2021/08/09 01:35:05;;;;;;;4.55;2.65;;;14.20;9.90;;;;;;5092575;28;20043;-75
2021/08/09 01:37:56;;;;;;;4.65;2.15;;;14.20;9.90;;;;;;5085876;28;20112;-76
2021/08/09 01:40:48;;;;;;;5.78;2.40;;;14.10;9.70;;;;;;5087567;28;20051;-75
2021/08/09 01:43:38;;;;;;;5.15;2.40;;;14.10;10.50;;;;;;5093240;27;20047;-76
2021/08/09 01:46:29;;;;;;;5.85;2.65;;;14.10;10.60;;;;;;5088299;28;20051;-76
2021/08/09 01:49:19;;;;;;;4.90;2.40;;;14.00;11.00;;;;;;5084844;28;20260;-76
2021/08/09 01:52:09;;;;;;;4.28;2.30;;;13.90;11.30;;;;;;5094431;28;20055;-75
2021/08/09 01:54:59;;;;;;;8.82;2.35;;;14.00;10.50;;;;;;5093984;28;20134;-76
2021/08/09 01:57:48;;;;;;;3.30;2.28;;;13.70;13.50;;;;;;5093803;28;20443;-75
2021/08/09 02:00:39;;;;;;;6.45;2.25;;;13.60;14.40;;;;;;5083546;28;20140;-75
2021/08/09 02:03:29;;;;;;;4.28;2.20;;;13.50;16.60;;;;;;5069787;28;20108;-76
2021/08/09 02:06:19;;;;;;;6.47;2.70;;;13.40;17.50;;;;;;5092002;28;20043;-76
2021/08/09 02:09:08;;;;;;;5.82;2.40;;;13.30;19.30;;;;;;5085355;27;20054;-76
2021/08/09 02:12:04;;;;;;;7.57;2.75;;;13.30;20.90;;;;;;5097136;28;20042;-76
2021/08/09 02:14:58;;;;;;;3.83;2.30;;;13.40;21.00;;;;;;5097297;28;20073;-76
2021/08/09 02:17:54;;;;;;;9.40;2.95;;;13.50;18.50;;;;;;5083249;28;20256;-75
2021/08/09 02:20:45;;;;;;;3.22;2.30;;;13.60;17.50;;;;;;5093923;28;20043;-76
2021/08/09 02:23:41;;;;;;;8.45;2.63;;;13.60;16.80;;;;;;5098055;28;20039;-76
2021/08/09 02:26:34;;;;;;;6.78;2.33;;;13.60;16.70;;;;;;5090590;28;20077;-75
2021/08/09 02:29:32;;;;;;;4.28;2.58;;;13.40;18.70;;;;;;5085836;28;20055;-75
2021/08/09 02:32:24;;;;;;;;;;;13.40;18.00;;;;;;5093684;27;20055;-76
2021/08/09 02:35:16;;;;;;;3.92;2.42;;;13.50;17.50;;;;;;5095737;27;19939;-75
2021/08/09 02:38:10;;;;;;;5.07;2.60;;;13.50;17.50;;;;;;5096497;27;20036;-75
2021/08/09 02:41:01;;;;;;;3.35;2.20;;;13.40;17.40;;;;;;5092301;27;20044;-75
2021/08/09 02:43:49;;;;;;;6.15;2.55;;;13.40;18.70;;;;;;5092521;27;20044;-75
2021/08/09 02:46:39;;;;;;;7.43;2.38;;;13.20;20.00;;;;;;5090880;27;20306;-75
2021/08/09 02:49:29;;;;;;;5.65;2.50;;;13.20;20.80;;;;;;5094022;27;20047;-76
2021/08/09 02:52:20;;;;;;;5.15;2.80;;;13.10;21.70;;;;;;5084140;28;20039;-75
2021/08/09 02:55:16;;;;;;;5.50;2.72;;;13.00;22.50;;;;;;5087191;27;20055;-75
2021/08/09 02:58:07;;;;;;;4.50;2.35;;;12.90;23.40;;;;;;5088580;27;20797;-75
2021/08/09 03:00:58;;;;;;;4.25;2.55;;;12.90;24.10;;;;;;5076200;28;20171;-76
2021/08/09 03:03:49;;;;;;;5.63;2.88;;;13.00;24.10;;;;;;5111259;27;20051;-76
2021/08/09 03:06:39;;;;;;;4.53;2.60;;;13.00;24.30;;;;;;5088180;27;20066;-76
2021/08/09 03:09:29;;;;;;;3.33;2.55;;;12.90;25.30;;;;;;5100881;27;20054;-75
2021/08/09 03:12:19;;;;;;;4.22;2.80;;;12.70;27.00;;;;;;5108681;27;20122;-75
2021/08/09 03:15:08;;;;;;;6.90;2.80;;;12.70;28.50;;;;;;5092640;27;20042;-75
2021/08/09 03:17:57;;;;;;;6.07;2.70;;;12.60;30.60;;;;;;5113776;27;20434;-75
2021/08/09 03:20:45;;;;;;;4.47;2.90;;;12.60;30.80;;;;;;5105025;27;20568;-76
2021/08/09 03:23:34;;;;;;;9.02;3.70;;;12.50;31.80;;;;;;5092096;28;20075;-76
2021/08/09 03:26:23;;;;;;;8.30;3.72;;;12.60;33.20;;;;;;5084142;28;20055;-75
2021/08/09 03:29:13;;;;;;;9.57;4.07;;;12.70;32.80;;;;;;5096326;27;20611;-76
2021/08/09 03:32:02;;;;;;;8.25;4.47;;;12.80;30.90;;;;;;5111370;27;20123;-76
2021/08/09 03:34:52;;;;;;;7.32;3.65;;;12.80;30.00;;;;;;5091945;28;20067;-76
2021/08/09 03:37:41;;;;;;;5.53;3.40;;;12.90;28.30;;;;;;5081353;27;20047;-75
2021/08/09 03:40:29;;;;;;;5.50;2.63;;;13.00;26.80;;;;;;5092852;27;20040;-76
2021/08/09 03:43:18;;;;;;;6.10;2.63;;;13.10;25.30;;;;;;5095973;27;20054;-76
2021/08/09 03:46:09;;;;;;;5.28;3.08;;;13.20;24.90;;;;;;5079517;28;20053;-75
2021/08/09 03:48:59;;;;;;;6.93;3.10;;;13.20;23.50;;;;;;5089430;27;20150;-75
2021/08/09 03:51:47;;;;;;;4.50;2.80;;;13.30;23.20;;;;;;5092224;27;20098;-75
2021/08/09 03:54:36;;;;;;;4.25;3.08;;;13.30;22.80;;;;;;5079428;27;20118;-76
2021/08/09 03:57:25;;;;;;;5.63;3.30;;;13.30;22.80;;;;;;5096643;28;20261;-75
2021/08/09 04:00:15;;;;;;;11.18;3.08;;;13.30;21.70;;;;;;5090902;27;20044;-76
2021/08/09 04:03:08;;;;;;;5.47;2.70;;;13.30;21.70;;;;;;5095736;27;20516;-75
2021/08/09 04:06:00;;;;;;;3.78;2.70;;;13.40;22.30;;;;;;5084483;28;20141;-76
2021/08/09 04:08:49;;;;;;;4.70;3.13;;;13.40;21.70;;;;;;5084402;28;20047;-75
2021/08/09 04:11:38;;;;;;;6.25;3.08;;;13.40;22.40;;;;;;5089418;27;20089;-76
2021/08/09 04:14:27;;;;;;;6.15;2.65;;;13.40;22.20;;;;;;5087004;28;20050;-75
2021/08/09 04:17:15;;;;;;;3.92;2.70;;;13.30;22.20;;;;;;5084695;28;20055;-75
2021/08/09 04:20:07;;;;;;;5.50;2.58;;;13.30;22.40;;;;;;5112985;27;20053;-75
2021/08/09 04:22:55;;;;;;;6.68;3.30;;;13.30;22.90;;;;;;5089434;27;20046;-76
2021/08/09 04:25:44;;;;;;;8.60;3.10;;;13.30;22.60;;;;;;5087542;27;20047;-76
2021/08/09 04:28:32;;;;;;;5.78;3.10;;;13.50;22.10;;;;;;5101304;27;20047;-75
2021/08/09 04:31:21;;;;;;;6.82;3.40;;;13.40;23.30;;;;;;5110686;27;20136;-76
2021/08/09 04:34:10;;;;;;;6.32;3.08;;;13.50;22.00;;;;;;5082359;27;20043;-75
2021/08/09 04:36:59;;;;;;;5.13;2.85;;;13.70;19.90;;;;;;5085276;27;20128;-76
2021/08/09 04:39:48;;;;;;;5.60;3.35;;;13.80;18.80;;;;;;5089206;27;20184;-76
2021/08/09 04:42:38;;;;;;;5.10;3.03;;;14.50;15.40;;;;;;5086530;27;20438;-75
2021/08/09 04:45:29;;;;;;;5.05;3.33;;;14.70;11.40;;;;;;5109293;27;20043;-76
2021/08/09 04:48:17;;;;;;;4.13;2.63;;;14.80;9.30;;;;;;5083731;28;20070;-75
2021/08/09 04:51:06;;;;;;;4.47;2.78;;;14.80;9.40;;;;;;5092437;27;20126;-75
2021/08/09 04:53:55;;;;;;;8.90;2.60;;;15.20;4.00;;;;;;5088820;27;20063;-76
2021/08/09 04:56:44;;;;;;;7.07;2.92;;;15.80;2.50;;;;;;5083549;28;20170;-76
2021/08/09 04:59:32;;;;;;;7.45;2.70;;;14.90;5.90;;;;;;5094565;27;20044;-76
2021/08/09 05:02:21;;;;;;;4.57;2.75;;;14.70;7.30;;;;;;5092382;27;20051;-76
2021/08/09 05:05:10;;;;;;;5.25;2.40;;;14.40;7.80;;;;;;5103077;27;20075;-76
2021/08/09 05:08:00;;;;;;;4.25;2.50;;;14.90;6.00;;;;;;5089172;27;20125;-76
2021/08/09 05:10:52;;;;;;;4.10;2.28;;;15.60;1.00;;;;;;5103934;27;20123;-75
2021/08/09 05:13:41;;;;;;;6.85;2.70;;;15.40;1.80;;;;;;5092185;27;20519;-76
2021/08/09 05:16:33;;;;;;;3.90;2.40;;;15.60;1.00;;;;;;5090237;27;20043;-76
2021/08/09 05:19:21;;;;;;;4.75;2.13;;;15.90;1.00;;;;;;5087203;28;20050;-75
2021/08/09 05:22:10;;;;;;;3.30;2.30;;;16.50;1.00;;;;;;5108325;27;20399;-75
2021/08/09 05:24:59;;;;;;;5.82;2.42;;;16.30;1.00;;;;;;5114329;27;20054;-76
2021/08/09 05:27:50;;;;;;;8.27;2.88;;;17.10;1.00;;;;;;5110508;27;20047;-76
2021/08/09 05:30:39;;;;;;;3.00;2.30;;;17.20;1.00;;;;;;5087818;28;20052;-76
2021/08/09 05:33:27;;;;;;;6.05;2.13;;;17.40;1.00;;;;;;5082345;28;20490;-76
2021/08/09 05:36:16;;;;;;;5.25;2.42;;;17.60;1.00;;;;;;5108676;28;20046;-76
2021/08/09 05:39:13;;;;;;;5.50;2.70;;;17.90;1.00;;;;;;5110040;28;20046;-76
2021/08/09 05:42:02;;;;;;;5.43;2.33;;;18.70;1.00;;;;;;5091902;28;20047;-76
2021/08/09 05:44:51;;;;;;;4.43;2.40;;;18.30;1.00;;;;;;5109841;28;20092;-76
2021/08/09 05:47:40;;;;;;;5.75;2.45;;;18.70;1.00;;;;;;5090588;28;20044;-76
2021/08/09 05:50:31;;;;;;;8.10;2.58;;;18.40;1.00;;;;;;5092334;28;20047;-76
2021/08/09 05:53:28;;;;;;;4.97;2.78;;;17.60;1.00;;;;;;5093800;28;20047;-76
2021/08/09 05:56:17;;;;;;;4.25;2.78;;;17.10;1.00;;;;;;5080237;28;20047;-76
2021/08/09 05:59:19;;;;;;;6.30;2.55;;;16.10;1.00;;;;;;5085030;28;20554;-76
2021/08/09 06:02:10;;;;;;;5.28;2.40;;;16.00;1.00;;;;;;5086510;28;20039;-76
2021/08/09 06:04:58;;;;;;;5.50;2.42;;;16.10;1.00;;;;;;5090010;27;20451;-75
2021/08/09 06:07:47;;;;;;;4.82;2.47;;;16.00;1.00;;;;;;5088392;28;20487;-76
2021/08/09 06:10:36;;;;;;;6.53;2.80;;;16.10;1.00;;;;;;5083618;27;20035;-76
2021/08/09 06:13:28;;;;;;;6.55;2.50;;;16.40;1.00;;;;;;5098269;27;20368;-75
2021/08/09 06:16:19;;;;;;;7.28;2.40;;;16.50;1.00;;;;;;5113200;27;20134;-76
2021/08/09 06:19:09;;;;;;;3.38;2.28;;;16.40;1.00;;;;;;5072874;28;20043;-75
2021/08/09 06:21:58;;;;;;;5.97;2.28;;;16.50;1.00;;;;;;5085659;27;20043;-76
2021/08/09 06:24:46;;;;;;;3.78;2.03;;;16.80;1.00;;;;;;5111673;27;20051;-76
2021/08/09 06:27:35;;;;;;;6.85;2.20;;;16.80;1.00;;;;;;5075559;27;20440;-76
2021/08/09 06:30:24;;;;;;;9.13;2.92;;;16.70;1.00;;;;;;5086527;27;20560;-76
2021/08/09 06:33:13;;;;;;;5.43;2.42;;;16.90;1.00;;;;;;5101078;27;20126;-76
2021/08/09 06:36:04;;;;;;;5.88;2.50;;;17.00;1.00;;;;;;5091927;27;20054;-76
2021/08/09 06:38:54;;;;;;;8.65;2.17;;;17.20;1.00;;;;;;5098037;27;20059;-76
2021/08/09 06:41:42;;;;;;;4.13;2.50;;;17.00;1.00;;;;;;5087809;28;20236;-76
2021/08/09 06:44:40;;;;;;;5.38;2.33;;;17.20;1.00;;;;;;5088440;27;20047;-75
2021/08/09 06:47:29;;;;;;;5.63;2.60;;;17.30;1.00;;;;;;5091883;27;20048;-75
2021/08/09 06:50:17;;;;;;;6.32;2.78;;;17.40;1.00;;;;;;5107255;27;20718;-76
2021/08/09 06:53:08;;;;;;;4.13;1.98;;;17.60;1.00;;;;;;5092011;27;20127;-76
2021/08/09 06:55:57;;;;;;;5.68;2.10;;;17.90;1.00;;;;;;5094259;27;20073;-76
2021/08/09 06:58:47;;;;;;;4.28;2.33;;;18.10;1.00;;;;;;5113626;27;20044;-76
2021/08/09 07:01:37;;;;;;;3.95;2.08;;;18.10;1.00;;;;;;5095593;27;20122;-75
2021/08/09 07:04:28;;;;;;;4.20;2.30;;;18.10;1.00;;;;;;5086758;27;20056;-76
2021/08/09 07:07:17;;;;;;;5.68;2.10;;;18.10;1.00;;;;;;5091522;27;20396;-76
2021/08/09 07:10:08;;;;;;;4.32;2.00;;;18.10;1.00;;;;;;5097727;27;20051;-75
2021/08/09 07:13:00;;;;;;;4.07;1.65;;;18.30;1.00;;;;;;5115423;27;20051;-76
2021/08/09 07:15:49;;;;;;;4.45;2.05;;;18.30;1.00;;;;;;5114205;27;20142;-75
2021/08/09 07:18:37;;;;;;;14.60;2.72;;;18.80;1.00;;;;;;5091893;27;20563;-75
2021/08/09 07:21:27;;;;;;;3.78;1.95;;;18.80;1.00;;;;;;5091134;27;20122;-75
2021/08/09 07:24:19;;;;;;;3.90;1.60;;;18.70;1.00;;;;;;5088688;27;20074;-75
2021/08/09 07:27:11;;;;;;;4.07;1.80;;;18.40;1.00;;;;;;5100072;27;20130;-76
2021/08/09 07:30:00;;;;;;;3.95;1.70;;;18.30;1.00;;;;;;5092001;27;20067;-75
2021/08/09 07:32:49;;;;;;;3.53;1.45;;;18.10;1.00;;;;;;5092641;27;20052;-76
2021/08/09 07:35:38;;;;;;;4.13;1.92;;;18.10;1.00;;;;;;5096669;28;20625;-75
2021/08/09 07:38:26;;;;;;;5.82;1.83;;;17.70;1.00;;;;;;5095358;27;20092;-75
2021/08/09 07:41:15;;;;;;;3.58;1.65;;;18.30;1.00;;;;;;5091770;27;20050;-75
2021/08/09 07:44:07;;;;;;;5.43;1.60;;;18.90;1.00;;;;;;5092543;27;20050;-76
2021/08/09 07:46:56;;;;;;;5.80;1.95;;;19.40;1.00;;;;;;5092168;27;20039;-76
2021/08/09 07:49:44;;;;;;;4.28;1.63;;;19.10;1.00;;;;;;5094974;27;20079;-76
2021/08/09 07:52:33;;;;;;;5.38;1.67;;;19.60;1.00;;;;;;5098555;27;20066;-76
2021/08/09 07:55:22;;;;;;;2.92;1.38;;;19.30;1.00;;;;;;5094506;27;20052;-76
2021/08/09 07:58:10;;;;;;;3.78;1.90;;;19.60;1.00;;;;;;5110060;27;20071;-76
2021/08/09 08:01:00;;;;;;;5.85;2.75;;;19.70;1.00;;;;;;5090039;27;20044;-76
2021/08/09 08:03:49;;;;;;;3.78;2.53;;;19.70;1.00;;;;;;5096945;27;20171;-76
2021/08/09 08:06:37;;;;;;;3.05;1.60;;;20.10;1.00;;;;;;5091919;27;20052;-75
2021/08/09 08:09:26;;;;;;;2.72;1.50;;;19.90;1.00;;;;;;5092118;27;20050;-76
2021/08/09 08:12:15;;;;;;;4.10;1.80;;;20.10;1.00;;;;;;5092013;27;20043;-75
2021/08/09 08:15:05;;;;;;;3.80;1.55;;;20.30;1.00;;;;;;5095572;27;20039;-76
2021/08/09 08:17:56;;;;;;;4.13;1.60;;;20.30;1.00;;;;;;5091294;28;20533;-76
2021/08/09 08:20:48;;;;;;;3.38;1.73;;;20.60;1.00;;;;;;5089882;27;20236;-76
2021/08/09 08:23:43;;;;;;;3.03;1.52;;;20.90;1.00;;;;;;5104988;27;20146;-76
2021/08/09 08:26:31;;;;;;;2.90;1.30;;;21.00;1.00;;;;;;5085002;28;20051;-76
2021/08/09 08:29:21;;;;;;;3.33;1.50;;;20.60;1.00;;;;;;5098479;27;20048;-75
2021/08/09 08:32:10;;;;;;;4.57;1.60;;;20.50;1.00;;;;;;5089010;27;20060;-75
2021/08/09 08:35:01;;;;;;;2.63;1.30;;;20.80;1.00;;;;;;5085208;28;20055;-76
2021/08/09 08:37:50;;;;;;;2.28;1.58;;;21.10;1.00;;;;;;5082796;28;20639;-76
2021/08/09 08:40:47;;;;;;;2.53;1.50;;;21.00;1.00;;;;;;5100188;28;20160;-76
2021/08/09 08:43:36;;;;;;;3.47;1.13;;;20.90;1.00;;;;;;5091507;27;20122;-76
2021/08/09 08:46:25;;;;;;;2.30;1.30;;;21.30;1.00;;;;;;5088542;28;20281;-77
2021/08/09 08:49:15;;;;;;;2.15;0.90;;;21.50;1.00;;;;;;5068685;27;20402;-77
2021/08/09 08:52:06;;;;;;;1.98;1.27;;;21.60;1.00;;;;;;5086986;27;20392;-76
2021/08/09 08:54:54;;;;;;;4.82;1.20;;;21.60;1.00;;;;;;5115886;27;20112;-76
2021/08/09 08:57:42;;;;;;;2.88;1.42;;;21.80;1.00;;;;;;5112514;27;20513;-75
2021/08/09 09:00:36;;;;;;;3.80;0.90;;;22.00;1.00;;;;;;5106057;27;20199;-76
2021/08/09 09:03:27;;;;;;;4.83;1.10;;;22.10;1.00;;;;;;5110222;27;20069;-75
2021/08/09 09:06:15;;;;;;;2.08;1.40;;;22.40;1.00;;;;;;5110772;27;20293;-75
2021/08/09 09:09:05;;;;;;;1.50;1.00;;;22.20;1.00;;;;;;5111362;27;20426;-75
2021/08/09 09:11:53;;;;;;;3.55;1.10;;;22.60;1.00;;;;;;5112587;27;20574;-76
2021/08/09 09:14:42;;;;;;;3.28;1.05;;;22.70;1.00;;;;;;5101417;28;20047;-76
2021/08/09 09:17:34;;;;;;;3.05;1.10;;;22.60;1.00;;;;;;5081357;28;20134;-77
2021/08/09 09:20:25;;;;;;;3.08;1.10;;;22.30;1.00;;;;;;5090694;27;20054;-76
2021/08/09 09:23:16;;;;;;;2.67;1.13;;;22.30;1.00;;;;;;5105724;27;20398;-76
2021/08/09 09:26:20;;;;;;;4.18;1.00;;;22.40;1.00;;;;;;5109125;27;20074;-76
2021/08/09 09:29:11;;;;;;;2.25;1.35;;;22.40;1.00;;;;;;5105016;27;20054;-76
2021/08/09 09:32:12;;;;;;;3.13;1.13;;;22.50;1.00;;;;;;5107382;27;20050;-76
2021/08/09 09:35:01;;;;;;;2.80;1.00;;;22.80;1.00;;;;;;5091864;27;20047;-76
2021/08/09 09:37:51;;;;;;;3.22;1.10;;;23.20;1.00;;;;;;5091994;27;20062;-76
2021/08/09 09:40:42;;;;;;;3.00;1.10;;;23.00;1.00;;;;;;5093988;27;21448;-76
2021/08/09 09:43:38;;;;;;;4.25;1.40;;;23.40;1.00;;;;;;5107463;27;20047;-76
2021/08/09 09:46:29;;;;;;;4.03;1.17;;;23.50;1.00;;;;;;5103855;28;20118;-77
2021/08/09 09:49:32;;;;;;;3.53;1.08;;;23.20;1.00;;;;;;5106343;27;20047;-75
2021/08/09 09:52:36;;;;;;;4.45;1.70;;;23.90;1.00;;;;;;5091877;28;20054;-76
2021/08/09 09:55:25;;;;;;;2.40;1.77;;;23.90;1.00;;;;;;5112214;27;20062;-75
2021/08/09 09:58:13;;;;;;;3.80;1.30;;;23.80;1.00;;;;;;5082999;28;20044;-77
2021/08/09 10:01:04;;;;;;;5.53;1.30;;;24.30;1.00;;;;;;5106859;28;20043;-76
2021/08/09 10:03:53;;;;;;;1.83;1.00;;;24.10;1.00;;;;;;5091218;28;20043;-75
2021/08/09 10:06:42;;;;;;;1.73;0.80;;;24.30;1.00;;;;;;5104830;28;20303;-75
2021/08/09 10:09:32;;;;;;;3.28;1.63;;;24.50;1.00;;;;;;5106923;27;20043;-77
2021/08/09 10:12:24;;;;;;;2.47;1.10;;;24.00;1.00;;;;;;5092548;28;20047;-75
2021/08/09 10:15:18;;;;;;;1.55;0.90;;;24.10;1.00;;;;;;5110116;28;20048;-76
2021/08/09 10:18:09;;;;;;;2.58;1.15;;;24.30;1.00;;;;;;5088541;28;20042;-76
2021/08/09 10:20:59;;;;;;;2.13;0.88;;;24.20;1.00;;;;;;5094880;28;20039;-75
2021/08/09 10:23:49;;;;;;;1.90;1.10;;;24.10;1.00;;;;;;5107268;28;20044;-75
2021/08/09 10:26:48;;;;;;;1.33;0.70;;;23.70;1.00;;;;;;5107168;27;20036;-75
2021/08/09 10:30:10;;;;;;;2.28;1.13;;;24.40;1.00;;;;;;5108347;27;20135;-75
2021/08/09 10:32:58;;;;;;;2.40;0.85;;;24.90;1.00;;;;;;5092643;28;20051;-76
2021/08/09 10:36:05;;;;;;;1.67;0.85;;;24.70;1.00;;;;;;5106882;28;20504;-75
2021/08/09 10:38:56;;;;;;;1.60;0.93;;;24.50;1.00;;;;;;5107070;28;20055;-75
2021/08/09 10:41:53;;;;;;;1.58;1.00;;;24.30;1.00;;;;;;5092425;28;20304;-75
2021/08/09 10:44:49;;;;;;;1.52;0.90;;;24.40;1.00;;;;;;5110870;27;20068;-75
2021/08/09 10:47:52;;;;;;;1.42;0.85;;;23.90;1.00;;;;;;5106786;28;20054;-75
2021/08/09 10:50:48;;;;;;;1.60;0.95;;;23.80;1.00;;;;;;5110387;28;20050;-75
2021/08/09 10:53:44;;;;;;;2.40;0.90;;;22.80;1.00;;;;;;5095252;27;20056;-75
2021/08/09 10:56:47;;;;;;;3.25;1.27;;;23.30;1.00;;;;;;5113600;27;20049;-75
2021/08/09 10:59:46;;;;;;;1.75;0.90;;;22.90;1.00;;;;;;5112667;27;20043;-76
2021/08/09 11:02:35;;;;;;;2.38;1.00;;;22.50;1.00;;;;;;5111400;27;20039;-75
2021/08/09 11:05:28;;;;;;;2.28;1.05;;;22.20;1.00;;;;;;5119363;27;20047;-75
2021/08/09 11:08:34;;;;;;;2.08;0.98;;;22.50;1.00;;;;;;5109732;27;20050;-75
2021/08/09 11:11:25;;;;;;;1.80;1.08;;;22.40;1.00;;;;;;5088355;28;20143;-76
2021/08/09 11:14:14;;;;;;;2.42;1.02;;;23.00;1.00;;;;;;5080406;27;20585;-75
2021/08/09 11:17:03;;;;;;;1.98;1.00;;;22.70;1.00;;;;;;5093200;27;20490;-74
2021/08/09 11:19:52;;;;;;;2.45;1.10;;;23.30;1.00;;;;;;5109075;27;20118;-75
2021/08/09 11:22:41;;;;;;;1.30;0.90;;;23.40;1.00;;;;;;5109729;27;20120;-75
2021/08/09 11:25:35;;;;;;;5.93;1.20;;;23.00;1.00;;;;;;5107517;27;20418;-76
2021/08/09 11:28:26;;;;;;;3.20;1.00;;;23.20;1.00;;;;;;5093416;27;20495;-75
2021/08/09 11:31:14;;;;;;;1.75;0.95;;;22.60;1.00;;;;;;5108918;27;20039;-75
2021/08/09 11:34:07;;;;;;;2.22;1.10;;;22.30;1.00;;;;;;5114677;27;20036;-75
2021/08/09 11:37:03;;;;;;;3.55;1.25;;;22.50;1.00;;;;;;5108881;27;20043;-76
2021/08/09 11:39:51;;;;;;;4.00;1.10;;;23.00;1.00;;;;;;5110661;27;20352;-74
2021/08/09 11:42:49;;;;;;;2.65;0.90;;;23.20;1.00;;;;;;5112354;27;20047;-75
2021/08/09 11:45:40;;;;;;;1.50;1.00;;;23.80;1.00;;;;;;5107290;27;20047;-75
2021/08/09 11:48:30;;;;;;;3.10;1.10;;;24.20;1.00;;;;;;5103435;27;20063;-75
2021/08/09 11:51:25;;;;;;;4.03;1.17;;;24.50;1.00;;;;;;5108850;27;20039;-75
2021/08/09 11:54:14;;;;;;;2.00;0.98;;;25.10;1.00;;;;;;5107442;27;20134;-75
2021/08/09 11:57:02;;;;;;;1.40;1.00;;;24.80;1.00;;;;;;5111437;27;20426;-75
2021/08/09 11:59:52;;;;;;;2.63;1.02;;;24.40;1.00;;;;;;5109307;27;20472;-75
2021/08/09 12:03:16;;;;;;;5.10;1.05;;;25.00;1.00;;;;;;5109369;27;20039;-75
2021/08/09 12:06:24;;;;;;;2.37;1.20;;;25.10;1.00;;;;;;5082084;27;20245;-75
2021/08/09 12:09:14;;;;;;;3.47;1.00;;;25.10;1.00;;;;;;5104230;27;20286;-75
2021/08/09 12:12:07;;;;;;;1.63;1.17;;;24.60;1.00;;;;;;5107012;27;20161;-75
2021/08/09 12:15:07;;;;;;;1.70;1.02;;;24.50;1.00;;;;;;5092629;27;20047;-75
2021/08/09 12:18:06;;;;;;;1.58;0.90;;;24.10;1.00;;;;;;5106264;27;20035;-75
2021/08/09 12:21:09;;;;;;;2.15;0.90;;;24.40;1.00;;;;;;5110210;27;20047;-74
2021/08/09 12:23:59;;;;;;;2.55;1.02;;;24.10;1.00;;;;;;5109664;27;20047;-75
2021/08/09 12:26:50;;;;;;;2.75;1.00;;;23.30;1.00;;;;;;5107151;27;20731;-75
2021/08/09 12:29:39;;;;;;;3.78;1.30;;;23.40;1.00;;;;;;5107612;27;20516;-75
2021/08/09 12:32:28;;;;;;;2.97;1.10;;;23.50;1.00;;;;;;5113445;27;20112;-75
2021/08/09 12:35:18;;;;;;;2.03;0.98;;;23.10;1.00;;;;;;5110130;27;20057;-74
2021/08/09 12:38:10;;;;;;;2.97;1.08;;;23.80;1.00;;;;;;5104272;27;20516;-75
2021/08/09 12:41:04;;;;;;;2.55;1.10;;;24.30;1.00;;;;;;5094452;27;20039;-75
2021/08/09 12:43:52;;;;;;;1.98;0.95;;;24.10;1.00;;;;;;5096888;27;20100;-75
2021/08/09 12:46:40;;;;;;;1.77;0.90;;;23.90;1.00;;;;;;5113686;27;20151;-75
2021/08/09 12:49:30;;;;;;;3.13;1.02;;;23.90;1.00;;;;;;5112652;27;20050;-74
2021/08/09 12:52:18;;;;;;;3.10;1.00;;;24.50;1.00;;;;;;5107376;27;20302;-75
2021/08/09 12:55:08;;;;;;;4.32;1.17;;;24.70;1.00;;;;;;5107243;27;20069;-74
2021/08/09 12:57:59;;;;;;;2.60;1.08;;;24.30;1.00;;;;;;5113209;27;20078;-75
2021/08/09 13:00:47;;;;;;;2.63;1.65;;;23.90;1.00;;;;;;5113545;27;20462;-75
2021/08/09 13:03:36;;;;;;;3.00;1.00;;;24.50;1.00;;;;;;5078598;27;20047;-75
2021/08/09 13:06:26;;;;;;;1.13;0.80;;;24.10;1.00;;;;;;5105832;27;20578;-75
2021/08/09 13:09:14;;;;;;;2.20;0.80;;;24.10;1.00;;;;;;5107331;27;20044;-75
2021/08/09 13:12:04;;;;;;;5.10;1.10;;;24.50;1.00;;;;;;5106946;27;20043;-75
2021/08/09 13:14:54;;;;;;;4.90;1.25;;;24.50;1.00;;;;;;5105507;27;20070;-73
2021/08/09 13:17:42;;;;;;;3.35;0.90;;;23.90;1.00;;;;;;5103937;27;20051;-74
2021/08/09 13:20:31;;;;;;;2.47;1.38;;;24.40;1.00;;;;;;5111177;27;20046;-74
2021/08/09 13:23:19;;;;;;;2.25;1.00;;;23.50;1.00;;;;;;5110302;27;20106;-73
2021/08/09 13:26:08;;;;;;;1.88;1.10;;;24.00;1.00;;;;;;5109874;27;20039;-74
2021/08/09 13:29:02;;;;;;;2.75;1.10;;;23.80;1.00;;;;;;5105105;27;20051;-74
2021/08/09 13:31:51;;;;;;;2.65;1.48;;;23.70;1.00;;;;;;5108089;27;20628;-74
2021/08/09 13:34:39;;;;;;;4.20;0.98;;;24.00;1.00;;;;;;5092654;28;20054;-74
2021/08/09 13:37:30;;;;;;;3.45;1.35;;;24.30;1.00;;;;;;5105267;27;20430;-74
2021/08/09 13:40:18;;;;;;;2.58;1.35;;;24.30;1.00;;;;;;5107694;27;20047;-74
2021/08/09 13:43:23;;;;;;;2.55;1.20;;;24.30;1.00;;;;;;5105189;28;20060;-74
2021/08/09 13:46:13;;;;;;;2.72;1.25;;;24.60;1.00;;;;;;5109875;28;20068;-74
2021/08/09 13:49:02;;;;;;;2.22;1.13;;;24.70;1.00;;;;;;5106107;28;20122;-74
2021/08/09 13:51:50;;;;;;;2.45;1.30;;;24.70;1.00;;;;;;5111253;28;20541;-73
2021/08/09 13:54:39;;;;;;;4.60;1.50;;;24.60;1.00;;;;;;5108366;28;20044;-74
2021/08/09 13:57:27;;;;;;;1.75;1.10;;;24.80;1.00;;;;;;5101823;28;20094;-74
2021/08/09 14:00:17;;;;;;;5.93;1.08;;;24.70;1.00;;;;;;5097921;27;20050;-75
2021/08/09 14:03:06;;;;;;;3.20;1.27;;;24.90;1.00;;;;;;5109297;28;20500;-75
2021/08/09 14:05:55;;;;;;;3.25;1.08;;;25.10;1.00;;;;;;5094517;27;20213;-74
2021/08/09 14:08:43;;;;;;;2.58;1.02;;;24.40;1.00;;;;;;5103319;28;20046;-74
2021/08/09 14:11:32;;;;;;;2.58;1.10;;;24.40;1.00;;;;;;5106674;28;20814;-75
2021/08/09 14:14:20;;;;;;;3.80;1.20;;;24.70;1.00;;;;;;5110118;28;20054;-74
2021/08/09 14:17:11;;;;;;;4.80;1.25;;;24.30;1.00;;;;;;5107258;28;20173;-74
2021/08/09 14:20:08;;;;;;;3.05;1.23;;;25.00;1.00;;;;;;5091692;27;20042;-75
2021/08/09 14:23:03;;;;;;;4.85;1.15;;;25.30;1.00;;;;;;5089122;28;20043;-75
2021/08/09 14:25:54;;;;;;;2.40;1.30;;;25.80;1.00;;;;;;5093466;28;21839;-76
2021/08/09 14:28:43;;;;;;;3.60;1.20;;;25.90;1.00;;;;;;5094081;27;20043;-75
2021/08/09 14:31:32;;;;;;;1.80;1.15;;;25.80;1.00;;;;;;5097468;27;20059;-75
2021/08/09 14:34:21;;;;;;;2.47;1.20;;;26.00;1.00;;;;;;5085999;27;20108;-75
2021/08/09 14:37:13;;;;;;;3.45;1.10;;;26.00;1.00;;;;;;5092168;27;20052;-75
2021/08/09 14:40:03;;;;;;;3.22;1.90;;;26.10;1.00;;;;;;5094858;27;20122;-75
2021/08/09 14:42:51;;;;;;;4.28;1.17;;;26.20;1.00;;;;;;5095325;27;20039;-75
2021/08/09 14:45:41;;;;;;;2.38;1.42;;;25.20;1.00;;;;;;5101323;27;20383;-75
2021/08/09 14:48:36;;;;;;;1.70;1.15;;;25.70;1.00;;;;;;5090939;27;20047;-73
2021/08/09 14:51:27;;;;;;;1.70;0.90;;;26.10;1.00;;;;;;5095105;27;20135;-76
2021/08/09 14:54:17;;;;;;;2.40;1.00;;;26.40;1.00;;;;;;5111878;27;20581;-75
2021/08/09 14:57:06;;;;;;;1.67;0.90;;;26.20;1.00;;;;;;5100557;27;20058;-73
2021/08/09 15:00:06;;;;;;;2.28;1.00;;;26.30;1.00;;;;;;5100091;27;20047;-75